sensor_id;sensor_type;location;lat;lon;timestamp;P1;durP1;ratioP1;P2;durP2;ratioP2
7957;SDS011;4024;52.172;5.378;2023-10-19T00:01:26;12.50;;;11.20;;
7957;SDS011;4024;52.172;5.378;2023-10-19T00:03:54;11.60;;;10.50;;
7957;SDS011;4024;52.172;5.378;2023-10-19T00:06:21;13.53;;;11.87;;
7957;SDS011;4024;52.172;5.378;2023-10-19T00:08:48;12.37;;;11.17;;
7957;SDS011;4024;52.172;5.378;2023-10-19T00:11:17;12.60;;;11.30;;
7957;SDS011;4024;52.172;5.378;2023-10-19T00:13:51;12.43;;;10.67;;
7957;SDS011;4024;52.172;5.378;2023-10-19T00:16:19;12.60;;;11.40;;
7957;SDS011;4024;52.172;5.378;2023-10-19T00:18:51;13.03;;;11.73;;
7957;SDS011;4024;52.172;5.378;2023-10-19T00:21:17;12.83;;;11.63;;
7957;SDS011;4024;52.172;5.378;2023-10-19T00:23:54;13.13;;;11.83;;
7957;SDS011;4024;52.172;5.378;2023-10-19T00:26:34;12.93;;;11.53;;
7957;SDS011;4024;52.172;5.378;2023-10-19T00:29:01;13.57;;;12.27;;
7957;SDS011;4024;52.172;5.378;2023-10-19T00:31:43;13.63;;;12.33;;
7957;SDS011;4024;52.172;5.378;2023-10-19T00:34:09;14.80;;;13.30;;
7957;SDS011;4024;52.172;5.378;2023-10-19T00:36:38;14.97;;;13.57;;
7957;SDS011;4024;52.172;5.378;2023-10-19T00:39:04;14.87;;;13.47;;
7957;SDS011;4024;52.172;5.378;2023-10-19T00:41:39;15.20;;;13.60;;
7957;SDS011;4024;52.172;5.378;2023-10-19T00:44:05;15.43;;;13.93;;
7957;SDS011;4024;52.172;5.378;2023-10-19T00:46:40;15.37;;;13.90;;
7957;SDS011;4024;52.172;5.378;2023-10-19T00:49:07;14.87;;;13.37;;
7957;SDS011;4024;52.172;5.378;2023-10-19T00:51:38;15.33;;;13.67;;
7957;SDS011;4024;52.172;5.378;2023-10-19T00:54:13;14.70;;;13.20;;
7957;SDS011;4024;52.172;5.378;2023-10-19T00:56:47;15.67;;;14.20;;
7957;SDS011;4024;52.172;5.378;2023-10-19T00:59:14;15.27;;;13.87;;
7957;SDS011;4024;52.172;5.378;2023-10-19T01:01:50;15.30;;;13.80;;
7957;SDS011;4024;52.172;5.378;2023-10-19T01:04:19;15.77;;;14.23;;
7957;SDS011;4024;52.172;5.378;2023-10-19T01:06:48;15.40;;;13.90;;
7957;SDS011;4024;52.172;5.378;2023-10-19T01:09:32;15.30;;;13.80;;
7957;SDS011;4024;52.172;5.378;2023-10-19T01:12:04;16.53;;;14.70;;
7957;SDS011;4024;52.172;5.378;2023-10-19T01:17:53;16.57;;;14.80;;
7957;SDS011;4024;52.172;5.378;2023-10-19T01:22:55;17.17;;;15.47;;
7957;SDS011;4024;52.172;5.378;2023-10-19T01:28:15;17.87;;;16.03;;
7957;SDS011;4024;52.172;5.378;2023-10-19T01:30:46;17.97;;;16.17;;
7957;SDS011;4024;52.172;5.378;2023-10-19T01:33:16;16.90;;;15.20;;
7957;SDS011;4024;52.172;5.378;2023-10-19T01:35:45;18.50;;;16.73;;
7957;SDS011;4024;52.172;5.378;2023-10-19T01:38:30;17.63;;;15.93;;
7957;SDS011;4024;52.172;5.378;2023-10-19T01:41:00;17.77;;;16.03;;
7957;SDS011;4024;52.172;5.378;2023-10-19T01:43:29;18.37;;;16.37;;
7957;SDS011;4024;52.172;5.378;2023-10-19T01:45:58;18.43;;;16.57;;
7957;SDS011;4024;52.172;5.378;2023-10-19T01:48:29;18.60;;;16.70;;
7957;SDS011;4024;52.172;5.378;2023-10-19T01:51:03;18.83;;;16.17;;
7957;SDS011;4024;52.172;5.378;2023-10-19T01:53:33;19.67;;;16.30;;
7957;SDS011;4024;52.172;5.378;2023-10-19T01:56:00;18.77;;;16.80;;
7957;SDS011;4024;52.172;5.378;2023-10-19T01:58:26;18.33;;;16.30;;
7957;SDS011;4024;52.172;5.378;2023-10-19T02:00:54;17.80;;;15.93;;
7957;SDS011;4024;52.172;5.378;2023-10-19T02:03:21;17.53;;;15.83;;
7957;SDS011;4024;52.172;5.378;2023-10-19T02:05:57;18.67;;;16.27;;
7957;SDS011;4024;52.172;5.378;2023-10-19T02:08:44;19.47;;;17.17;;
7957;SDS011;4024;52.172;5.378;2023-10-19T02:11:23;17.70;;;15.60;;
7957;SDS011;4024;52.172;5.378;2023-10-19T02:13:56;17.30;;;15.57;;
7957;SDS011;4024;52.172;5.378;2023-10-19T02:16:29;17.30;;;15.10;;
7957;SDS011;4024;52.172;5.378;2023-10-19T02:18:55;17.87;;;16.00;;
7957;SDS011;4024;52.172;5.378;2023-10-19T02:21:21;17.60;;;15.70;;
7957;SDS011;4024;52.172;5.378;2023-10-19T02:23:58;17.70;;;15.93;;
7957;SDS011;4024;52.172;5.378;2023-10-19T02:26:24;16.43;;;14.73;;
7957;SDS011;4024;52.172;5.378;2023-10-19T02:28:53;17.37;;;15.50;;
7957;SDS011;4024;52.172;5.378;2023-10-19T02:31:21;17.40;;;15.60;;
7957;SDS011;4024;52.172;5.378;2023-10-19T02:33:49;17.00;;;15.17;;
7957;SDS011;4024;52.172;5.378;2023-10-19T02:36:23;16.97;;;15.17;;
7957;SDS011;4024;52.172;5.378;2023-10-19T02:38:59;16.80;;;15.13;;
7957;SDS011;4024;52.172;5.378;2023-10-19T02:41:33;16.53;;;14.77;;
7957;SDS011;4024;52.172;5.378;2023-10-19T02:44:03;15.90;;;14.20;;
7957;SDS011;4024;52.172;5.378;2023-10-19T02:46:29;16.33;;;14.63;;
7957;SDS011;4024;52.172;5.378;2023-10-19T02:48:59;16.00;;;14.37;;
7957;SDS011;4024;52.172;5.378;2023-10-19T02:51:26;14.73;;;13.23;;
7957;SDS011;4024;52.172;5.378;2023-10-19T02:53:52;15.13;;;13.60;;
7957;SDS011;4024;52.172;5.378;2023-10-19T02:56:18;15.60;;;13.77;;
7957;SDS011;4024;52.172;5.378;2023-10-19T02:58:45;15.80;;;14.20;;
7957;SDS011;4024;52.172;5.378;2023-10-19T03:01:14;15.13;;;13.57;;
7957;SDS011;4024;52.172;5.378;2023-10-19T03:03:44;14.07;;;12.67;;
7957;SDS011;4024;52.172;5.378;2023-10-19T03:06:11;13.80;;;12.50;;
7957;SDS011;4024;52.172;5.378;2023-10-19T03:08:36;14.90;;;13.40;;
7957;SDS011;4024;52.172;5.378;2023-10-19T03:11:02;14.90;;;13.47;;
7957;SDS011;4024;52.172;5.378;2023-10-19T03:13:32;15.47;;;13.27;;
7957;SDS011;4024;52.172;5.378;2023-10-19T03:15:58;18.73;;;14.13;;
7957;SDS011;4024;52.172;5.378;2023-10-19T03:18:26;14.73;;;13.23;;
7957;SDS011;4024;52.172;5.378;2023-10-19T03:20:53;14.10;;;12.70;;
7957;SDS011;4024;52.172;5.378;2023-10-19T03:23:19;15.00;;;13.50;;
7957;SDS011;4024;52.172;5.378;2023-10-19T03:25:46;13.30;;;12.03;;
7957;SDS011;4024;52.172;5.378;2023-10-19T03:28:23;14.20;;;12.80;;
7957;SDS011;4024;52.172;5.378;2023-10-19T03:30:51;13.30;;;12.10;;
7957;SDS011;4024;52.172;5.378;2023-10-19T03:33:18;13.87;;;12.57;;
7957;SDS011;4024;52.172;5.378;2023-10-19T03:35:43;13.50;;;12.20;;
7957;SDS011;4024;52.172;5.378;2023-10-19T03:38:09;14.37;;;12.90;;
7957;SDS011;4024;52.172;5.378;2023-10-19T03:40:42;13.53;;;12.23;;
7957;SDS011;4024;52.172;5.378;2023-10-19T03:43:16;13.50;;;12.07;;
7957;SDS011;4024;52.172;5.378;2023-10-19T03:45:43;14.20;;;12.60;;
7957;SDS011;4024;52.172;5.378;2023-10-19T03:48:20;16.20;;;12.43;;
7957;SDS011;4024;52.172;5.378;2023-10-19T03:50:51;13.83;;;11.20;;
7957;SDS011;4024;52.172;5.378;2023-10-19T03:53:22;14.07;;;12.60;;
7957;SDS011;4024;52.172;5.378;2023-10-19T03:55:48;15.10;;;12.37;;
7957;SDS011;4024;52.172;5.378;2023-10-19T03:58:15;14.40;;;11.97;;
7957;SDS011;4024;52.172;5.378;2023-10-19T04:00:41;14.30;;;11.70;;
7957;SDS011;4024;52.172;5.378;2023-10-19T04:03:09;11.67;;;10.20;;
7957;SDS011;4024;52.172;5.378;2023-10-19T04:05:35;21.97;;;11.90;;
7957;SDS011;4024;52.172;5.378;2023-10-19T04:08:04;13.50;;;11.77;;
7957;SDS011;4024;52.172;5.378;2023-10-19T04:10:38;12.83;;;11.47;;
7957;SDS011;4024;52.172;5.378;2023-10-19T04:13:04;13.93;;;11.37;;
7957;SDS011;4024;52.172;5.378;2023-10-19T04:15:34;11.93;;;10.60;;
7957;SDS011;4024;52.172;5.378;2023-10-19T04:18:00;14.77;;;10.67;;
7957;SDS011;4024;52.172;5.378;2023-10-19T04:20:33;11.57;;;10.37;;
7957;SDS011;4024;52.172;5.378;2023-10-19T04:23:17;12.07;;;10.37;;
7957;SDS011;4024;52.172;5.378;2023-10-19T04:25:43;14.70;;;10.10;;
7957;SDS011;4024;52.172;5.378;2023-10-19T04:28:12;10.77;;;9.67;;
7957;SDS011;4024;52.172;5.378;2023-10-19T04:30:42;11.70;;;9.53;;
7957;SDS011;4024;52.172;5.378;2023-10-19T04:33:07;14.33;;;9.20;;
7957;SDS011;4024;52.172;5.378;2023-10-19T04:35:36;9.90;;;8.27;;
7957;SDS011;4024;52.172;5.378;2023-10-19T04:38:03;11.47;;;8.40;;
7957;SDS011;4024;52.172;5.378;2023-10-19T04:40:34;10.50;;;9.20;;
7957;SDS011;4024;52.172;5.378;2023-10-19T04:43:01;11.63;;;8.63;;
7957;SDS011;4024;52.172;5.378;2023-10-19T04:45:30;10.07;;;7.40;;
7957;SDS011;4024;52.172;5.378;2023-10-19T04:47:56;9.33;;;7.03;;
7957;SDS011;4024;52.172;5.378;2023-10-19T04:50:22;9.53;;;6.93;;
7957;SDS011;4024;52.172;5.378;2023-10-19T04:52:48;8.03;;;6.40;;
7957;SDS011;4024;52.172;5.378;2023-10-19T04:55:14;8.13;;;6.20;;
7957;SDS011;4024;52.172;5.378;2023-10-19T04:57:39;7.27;;;6.43;;
7957;SDS011;4024;52.172;5.378;2023-10-19T05:00:05;7.33;;;5.93;;
7957;SDS011;4024;52.172;5.378;2023-10-19T05:02:39;6.23;;;5.37;;
7957;SDS011;4024;52.172;5.378;2023-10-19T05:05:05;7.63;;;5.03;;
7957;SDS011;4024;52.172;5.378;2023-10-19T05:07:31;7.60;;;5.20;;
7957;SDS011;4024;52.172;5.378;2023-10-19T05:09:58;5.90;;;4.70;;
7957;SDS011;4024;52.172;5.378;2023-10-19T05:12:24;9.90;;;4.03;;
7957;SDS011;4024;52.172;5.378;2023-10-19T05:14:50;5.87;;;4.30;;
7957;SDS011;4024;52.172;5.378;2023-10-19T05:17:15;6.70;;;3.97;;
7957;SDS011;4024;52.172;5.378;2023-10-19T05:19:41;8.10;;;4.27;;
7957;SDS011;4024;52.172;5.378;2023-10-19T05:22:07;4.63;;;3.80;;
7957;SDS011;4024;52.172;5.378;2023-10-19T05:24:34;5.97;;;3.83;;
7957;SDS011;4024;52.172;5.378;2023-10-19T05:27:02;7.13;;;3.60;;
7957;SDS011;4024;52.172;5.378;2023-10-19T05:29:30;5.60;;;3.00;;
7957;SDS011;4024;52.172;5.378;2023-10-19T05:31:58;4.23;;;3.40;;
7957;SDS011;4024;52.172;5.378;2023-10-19T05:34:24;6.60;;;3.60;;
7957;SDS011;4024;52.172;5.378;2023-10-19T05:36:51;4.83;;;3.27;;
7957;SDS011;4024;52.172;5.378;2023-10-19T05:39:25;8.13;;;3.27;;
7957;SDS011;4024;52.172;5.378;2023-10-19T05:41:57;5.67;;;3.10;;
7957;SDS011;4024;52.172;5.378;2023-10-19T05:44:26;3.90;;;2.83;;
7957;SDS011;4024;52.172;5.378;2023-10-19T05:46:53;4.17;;;2.83;;
7957;SDS011;4024;52.172;5.378;2023-10-19T05:49:20;4.47;;;2.70;;
7957;SDS011;4024;52.172;5.378;2023-10-19T05:51:45;4.87;;;2.90;;
7957;SDS011;4024;52.172;5.378;2023-10-19T05:54:11;4.30;;;2.47;;
7957;SDS011;4024;52.172;5.378;2023-10-19T05:56:37;4.50;;;2.53;;
7957;SDS011;4024;52.172;5.378;2023-10-19T05:59:03;4.67;;;2.80;;
7957;SDS011;4024;52.172;5.378;2023-10-19T06:01:29;5.03;;;2.73;;
7957;SDS011;4024;52.172;5.378;2023-10-19T06:03:55;3.20;;;2.60;;
7957;SDS011;4024;52.172;5.378;2023-10-19T06:06:21;7.23;;;2.67;;
7957;SDS011;4024;52.172;5.378;2023-10-19T06:08:47;5.87;;;2.67;;
7957;SDS011;4024;52.172;5.378;2023-10-19T06:11:14;5.90;;;2.70;;
7957;SDS011;4024;52.172;5.378;2023-10-19T06:13:40;7.80;;;2.37;;
7957;SDS011;4024;52.172;5.378;2023-10-19T06:16:06;5.27;;;2.47;;
7957;SDS011;4024;52.172;5.378;2023-10-19T06:18:31;4.10;;;2.10;;
7957;SDS011;4024;52.172;5.378;2023-10-19T06:20:57;4.60;;;2.50;;
7957;SDS011;4024;52.172;5.378;2023-10-19T06:23:22;5.13;;;2.30;;
7957;SDS011;4024;52.172;5.378;2023-10-19T06:25:48;4.27;;;2.77;;
7957;SDS011;4024;52.172;5.378;2023-10-19T06:28:16;5.73;;;2.20;;
7957;SDS011;4024;52.172;5.378;2023-10-19T06:30:42;9.13;;;2.50;;
7957;SDS011;4024;52.172;5.378;2023-10-19T06:33:07;5.97;;;2.47;;
7957;SDS011;4024;52.172;5.378;2023-10-19T06:35:33;2.90;;;2.13;;
7957;SDS011;4024;52.172;5.378;2023-10-19T06:37:59;5.97;;;2.50;;
7957;SDS011;4024;52.172;5.378;2023-10-19T06:40:26;9.63;;;2.97;;
7957;SDS011;4024;52.172;5.378;2023-10-19T06:42:54;3.43;;;2.57;;
7957;SDS011;4024;52.172;5.378;2023-10-19T06:45:21;4.60;;;2.40;;
7957;SDS011;4024;52.172;5.378;2023-10-19T06:47:47;4.67;;;2.47;;
7957;SDS011;4024;52.172;5.378;2023-10-19T06:50:14;2.90;;;2.53;;
7957;SDS011;4024;52.172;5.378;2023-10-19T06:52:41;5.70;;;2.60;;
7957;SDS011;4024;52.172;5.378;2023-10-19T06:55:12;5.30;;;2.60;;
7957;SDS011;4024;52.172;5.378;2023-10-19T06:57:48;4.10;;;2.50;;
7957;SDS011;4024;52.172;5.378;2023-10-19T07:00:21;4.23;;;2.80;;
7957;SDS011;4024;52.172;5.378;2023-10-19T07:02:51;8.17;;;3.10;;
7957;SDS011;4024;52.172;5.378;2023-10-19T07:05:18;5.73;;;2.70;;
7957;SDS011;4024;52.172;5.378;2023-10-19T07:07:48;7.57;;;3.20;;
7957;SDS011;4024;52.172;5.378;2023-10-19T07:10:17;8.43;;;3.23;;
7957;SDS011;4024;52.172;5.378;2023-10-19T07:12:44;5.13;;;2.80;;
7957;SDS011;4024;52.172;5.378;2023-10-19T07:15:13;5.57;;;3.20;;
7957;SDS011;4024;52.172;5.378;2023-10-19T07:17:39;5.37;;;2.73;;
7957;SDS011;4024;52.172;5.378;2023-10-19T07:20:06;7.57;;;3.73;;
7957;SDS011;4024;52.172;5.378;2023-10-19T07:22:34;8.00;;;3.50;;
7957;SDS011;4024;52.172;5.378;2023-10-19T07:25:06;6.60;;;3.17;;
7957;SDS011;4024;52.172;5.378;2023-10-19T07:27:34;5.13;;;3.17;;
7957;SDS011;4024;52.172;5.378;2023-10-19T07:30:00;9.43;;;3.60;;
7957;SDS011;4024;52.172;5.378;2023-10-19T07:32:30;6.50;;;3.30;;
7957;SDS011;4024;52.172;5.378;2023-10-19T07:34:57;4.70;;;2.80;;
7957;SDS011;4024;52.172;5.378;2023-10-19T07:37:23;3.97;;;3.20;;
7957;SDS011;4024;52.172;5.378;2023-10-19T07:39:49;5.47;;;2.90;;
7957;SDS011;4024;52.172;5.378;2023-10-19T07:42:17;7.70;;;3.57;;
7957;SDS011;4024;52.172;5.378;2023-10-19T07:44:43;7.93;;;3.50;;
7957;SDS011;4024;52.172;5.378;2023-10-19T07:47:10;6.27;;;2.93;;
7957;SDS011;4024;52.172;5.378;2023-10-19T07:49:37;3.17;;;2.80;;
7957;SDS011;4024;52.172;5.378;2023-10-19T07:52:06;4.03;;;2.80;;
7957;SDS011;4024;52.172;5.378;2023-10-19T07:54:33;5.30;;;3.40;;
7957;SDS011;4024;52.172;5.378;2023-10-19T07:57:02;7.47;;;3.47;;
7957;SDS011;4024;52.172;5.378;2023-10-19T07:59:33;7.70;;;3.40;;
7957;SDS011;4024;52.172;5.378;2023-10-19T08:02:00;6.07;;;3.10;;
7957;SDS011;4024;52.172;5.378;2023-10-19T08:04:27;7.67;;;3.40;;
7957;SDS011;4024;52.172;5.378;2023-10-19T08:06:53;4.97;;;3.10;;
7957;SDS011;4024;52.172;5.378;2023-10-19T08:09:20;6.67;;;3.20;;
7957;SDS011;4024;52.172;5.378;2023-10-19T08:11:48;3.67;;;2.83;;
7957;SDS011;4024;52.172;5.378;2023-10-19T08:14:14;7.03;;;3.00;;
7957;SDS011;4024;52.172;5.378;2023-10-19T08:16:40;7.20;;;2.80;;
7957;SDS011;4024;52.172;5.378;2023-10-19T08:19:07;6.17;;;3.00;;
7957;SDS011;4024;52.172;5.378;2023-10-19T08:21:33;4.60;;;3.00;;
7957;SDS011;4024;52.172;5.378;2023-10-19T08:23:59;8.17;;;3.30;;
7957;SDS011;4024;52.172;5.378;2023-10-19T08:26:29;6.53;;;3.00;;
7957;SDS011;4024;52.172;5.378;2023-10-19T08:28:55;5.10;;;3.43;;
7957;SDS011;4024;52.172;5.378;2023-10-19T08:31:24;9.63;;;3.73;;
7957;SDS011;4024;52.172;5.378;2023-10-19T08:33:49;4.63;;;2.90;;
7957;SDS011;4024;52.172;5.378;2023-10-19T08:36:18;4.53;;;3.10;;
7957;SDS011;4024;52.172;5.378;2023-10-19T08:38:47;10.00;;;3.27;;
7957;SDS011;4024;52.172;5.378;2023-10-19T08:41:14;6.03;;;3.10;;
7957;SDS011;4024;52.172;5.378;2023-10-19T08:43:40;6.73;;;3.03;;
7957;SDS011;4024;52.172;5.378;2023-10-19T08:46:06;7.27;;;3.40;;
7957;SDS011;4024;52.172;5.378;2023-10-19T08:48:33;6.97;;;3.37;;
7957;SDS011;4024;52.172;5.378;2023-10-19T08:51:01;5.97;;;3.30;;
7957;SDS011;4024;52.172;5.378;2023-10-19T08:53:34;5.43;;;3.53;;
7957;SDS011;4024;52.172;5.378;2023-10-19T08:56:04;9.60;;;3.60;;
7957;SDS011;4024;52.172;5.378;2023-10-19T08:58:32;7.23;;;3.53;;
7957;SDS011;4024;52.172;5.378;2023-10-19T09:00:57;6.60;;;3.93;;
7957;SDS011;4024;52.172;5.378;2023-10-19T09:03:31;9.10;;;3.47;;
7957;SDS011;4024;52.172;5.378;2023-10-19T09:05:59;7.43;;;4.00;;
7957;SDS011;4024;52.172;5.378;2023-10-19T09:08:30;6.40;;;4.03;;
7957;SDS011;4024;52.172;5.378;2023-10-19T09:11:08;7.13;;;3.80;;
7957;SDS011;4024;52.172;5.378;2023-10-19T09:16:13;8.43;;;3.90;;
7957;SDS011;4024;52.172;5.378;2023-10-19T09:18:43;7.40;;;3.40;;
7957;SDS011;4024;52.172;5.378;2023-10-19T09:21:10;7.27;;;3.70;;
7957;SDS011;4024;52.172;5.378;2023-10-19T09:23:49;10.17;;;4.10;;
7957;SDS011;4024;52.172;5.378;2023-10-19T09:26:15;7.87;;;4.13;;
7957;SDS011;4024;52.172;5.378;2023-10-19T09:28:41;10.53;;;4.27;;
7957;SDS011;4024;52.172;5.378;2023-10-19T09:31:07;8.90;;;3.83;;
7957;SDS011;4024;52.172;5.378;2023-10-19T09:33:36;9.20;;;4.00;;
7957;SDS011;4024;52.172;5.378;2023-10-19T09:36:05;5.87;;;4.47;;
7957;SDS011;4024;52.172;5.378;2023-10-19T09:38:38;12.10;;;4.83;;
7957;SDS011;4024;52.172;5.378;2023-10-19T09:41:15;8.60;;;3.93;;
7957;SDS011;4024;52.172;5.378;2023-10-19T09:43:46;7.33;;;4.20;;
7957;SDS011;4024;52.172;5.378;2023-10-19T09:46:22;9.63;;;4.50;;
7957;SDS011;4024;52.172;5.378;2023-10-19T09:48:49;12.73;;;4.93;;
7957;SDS011;4024;52.172;5.378;2023-10-19T09:51:16;7.90;;;4.10;;
7957;SDS011;4024;52.172;5.378;2023-10-19T09:54:07;8.67;;;4.77;;
7957;SDS011;4024;52.172;5.378;2023-10-19T09:56:36;7.37;;;3.73;;
7957;SDS011;4024;52.172;5.378;2023-10-19T09:59:06;8.63;;;3.97;;
7957;SDS011;4024;52.172;5.378;2023-10-19T10:04:34;11.20;;;4.40;;
7957;SDS011;4024;52.172;5.378;2023-10-19T10:07:04;9.57;;;4.00;;
7957;SDS011;4024;52.172;5.378;2023-10-19T10:09:32;10.00;;;3.80;;
7957;SDS011;4024;52.172;5.378;2023-10-19T10:14:54;10.00;;;4.37;;
7957;SDS011;4024;52.172;5.378;2023-10-19T10:17:27;8.40;;;4.27;;
7957;SDS011;4024;52.172;5.378;2023-10-19T10:19:53;7.40;;;3.60;;
7957;SDS011;4024;52.172;5.378;2023-10-19T10:22:38;9.10;;;3.73;;
7957;SDS011;4024;52.172;5.378;2023-10-19T10:25:06;10.13;;;4.50;;
7957;SDS011;4024;52.172;5.378;2023-10-19T10:27:35;15.40;;;4.87;;
7957;SDS011;4024;52.172;5.378;2023-10-19T10:30:09;8.00;;;4.07;;
7957;SDS011;4024;52.172;5.378;2023-10-19T10:32:51;8.37;;;4.40;;
7957;SDS011;4024;52.172;5.378;2023-10-19T10:38:05;10.10;;;4.23;;
7957;SDS011;4024;52.172;5.378;2023-10-19T10:40:41;10.27;;;4.70;;
7957;SDS011;4024;52.172;5.378;2023-10-19T10:43:17;11.03;;;4.03;;
7957;SDS011;4024;52.172;5.378;2023-10-19T10:45:44;11.13;;;4.83;;
7957;SDS011;4024;52.172;5.378;2023-10-19T10:48:16;14.97;;;5.30;;
7957;SDS011;4024;52.172;5.378;2023-10-19T10:50:44;11.77;;;4.83;;
7957;SDS011;4024;52.172;5.378;2023-10-19T10:53:11;8.77;;;4.27;;
7957;SDS011;4024;52.172;5.378;2023-10-19T10:55:37;11.00;;;4.60;;
7957;SDS011;4024;52.172;5.378;2023-10-19T10:58:04;9.90;;;4.60;;
7957;SDS011;4024;52.172;5.378;2023-10-19T11:00:30;10.10;;;4.37;;
7957;SDS011;4024;52.172;5.378;2023-10-19T11:03:02;8.57;;;4.00;;
7957;SDS011;4024;52.172;5.378;2023-10-19T11:05:29;14.87;;;4.20;;
7957;SDS011;4024;52.172;5.378;2023-10-19T11:08:08;11.23;;;4.57;;
7957;SDS011;4024;52.172;5.378;2023-10-19T11:10:38;9.97;;;4.20;;
7957;SDS011;4024;52.172;5.378;2023-10-19T11:13:07;6.30;;;3.80;;
7957;SDS011;4024;52.172;5.378;2023-10-19T11:15:35;8.83;;;4.70;;
7957;SDS011;4024;52.172;5.378;2023-10-19T11:18:04;28.90;;;13.10;;
7957;SDS011;4024;52.172;5.378;2023-10-19T11:20:32;10.83;;;4.27;;
7957;SDS011;4024;52.172;5.378;2023-10-19T11:22:58;13.53;;;4.23;;
7957;SDS011;4024;52.172;5.378;2023-10-19T11:25:29;9.30;;;3.97;;
7957;SDS011;4024;52.172;5.378;2023-10-19T11:27:55;13.93;;;3.93;;
7957;SDS011;4024;52.172;5.378;2023-10-19T11:30:23;11.40;;;4.33;;
7957;SDS011;4024;52.172;5.378;2023-10-19T11:32:49;10.37;;;4.43;;
7957;SDS011;4024;52.172;5.378;2023-10-19T11:35:18;9.60;;;3.97;;
7957;SDS011;4024;52.172;5.378;2023-10-19T11:37:51;12.90;;;3.80;;
7957;SDS011;4024;52.172;5.378;2023-10-19T11:40:18;10.80;;;4.13;;
7957;SDS011;4024;52.172;5.378;2023-10-19T11:42:47;7.87;;;4.17;;
7957;SDS011;4024;52.172;5.378;2023-10-19T11:45:14;10.60;;;3.73;;
7957;SDS011;4024;52.172;5.378;2023-10-19T11:47:41;8.43;;;3.70;;
7957;SDS011;4024;52.172;5.378;2023-10-19T11:50:10;15.43;;;5.20;;
7957;SDS011;4024;52.172;5.378;2023-10-19T11:52:43;14.23;;;4.83;;
7957;SDS011;4024;52.172;5.378;2023-10-19T11:55:10;11.00;;;3.80;;
7957;SDS011;4024;52.172;5.378;2023-10-19T11:57:38;10.07;;;4.13;;
7957;SDS011;4024;52.172;5.378;2023-10-19T12:00:05;14.10;;;4.33;;
7957;SDS011;4024;52.172;5.378;2023-10-19T12:02:37;9.70;;;3.97;;
7957;SDS011;4024;52.172;5.378;2023-10-19T12:05:06;10.50;;;3.63;;
7957;SDS011;4024;52.172;5.378;2023-10-19T12:07:36;9.07;;;3.13;;
7957;SDS011;4024;52.172;5.378;2023-10-19T12:10:03;8.33;;;3.40;;
7957;SDS011;4024;52.172;5.378;2023-10-19T12:12:33;11.33;;;4.27;;
7957;SDS011;4024;52.172;5.378;2023-10-19T12:14:59;10.53;;;3.73;;
7957;SDS011;4024;52.172;5.378;2023-10-19T12:17:24;9.57;;;3.27;;
7957;SDS011;4024;52.172;5.378;2023-10-19T12:19:52;7.07;;;3.17;;
7957;SDS011;4024;52.172;5.378;2023-10-19T12:22:19;9.63;;;3.10;;
7957;SDS011;4024;52.172;5.378;2023-10-19T12:24:46;8.90;;;3.50;;
7957;SDS011;4024;52.172;5.378;2023-10-19T12:27:13;10.33;;;3.80;;
7957;SDS011;4024;52.172;5.378;2023-10-19T12:29:39;9.87;;;3.90;;
7957;SDS011;4024;52.172;5.378;2023-10-19T12:32:05;10.93;;;3.70;;
7957;SDS011;4024;52.172;5.378;2023-10-19T12:34:31;9.53;;;3.23;;
7957;SDS011;4024;52.172;5.378;2023-10-19T12:36:56;11.00;;;3.30;;
7957;SDS011;4024;52.172;5.378;2023-10-19T12:39:25;8.30;;;3.50;;
7957;SDS011;4024;52.172;5.378;2023-10-19T12:42:23;8.30;;;3.20;;
7957;SDS011;4024;52.172;5.378;2023-10-19T12:44:49;8.70;;;3.37;;
7957;SDS011;4024;52.172;5.378;2023-10-19T12:47:16;8.93;;;3.33;;
7957;SDS011;4024;52.172;5.378;2023-10-19T12:49:42;10.17;;;3.60;;
7957;SDS011;4024;52.172;5.378;2023-10-19T12:52:11;8.63;;;3.37;;
7957;SDS011;4024;52.172;5.378;2023-10-19T12:54:36;10.23;;;3.87;;
7957;SDS011;4024;52.172;5.378;2023-10-19T12:57:03;7.60;;;3.20;;
7957;SDS011;4024;52.172;5.378;2023-10-19T12:59:31;12.47;;;3.47;;
7957;SDS011;4024;52.172;5.378;2023-10-19T13:01:57;9.87;;;3.67;;
7957;SDS011;4024;52.172;5.378;2023-10-19T13:04:26;12.57;;;3.57;;
7957;SDS011;4024;52.172;5.378;2023-10-19T13:06:55;11.73;;;3.53;;
7957;SDS011;4024;52.172;5.378;2023-10-19T13:09:23;12.13;;;3.57;;
7957;SDS011;4024;52.172;5.378;2023-10-19T13:11:55;8.43;;;3.47;;
7957;SDS011;4024;52.172;5.378;2023-10-19T13:14:32;13.93;;;4.50;;
7957;SDS011;4024;52.172;5.378;2023-10-19T13:16:59;10.30;;;3.90;;
7957;SDS011;4024;52.172;5.378;2023-10-19T13:19:25;9.70;;;3.73;;
7957;SDS011;4024;52.172;5.378;2023-10-19T13:21:51;11.80;;;4.10;;
7957;SDS011;4024;52.172;5.378;2023-10-19T13:24:20;6.77;;;3.33;;
7957;SDS011;4024;52.172;5.378;2023-10-19T13:26:46;10.53;;;3.93;;
7957;SDS011;4024;52.172;5.378;2023-10-19T13:29:13;11.80;;;4.13;;
7957;SDS011;4024;52.172;5.378;2023-10-19T13:31:40;8.43;;;3.70;;
7957;SDS011;4024;52.172;5.378;2023-10-19T13:34:06;10.23;;;4.17;;
7957;SDS011;4024;52.172;5.378;2023-10-19T13:36:35;14.23;;;4.07;;
7957;SDS011;4024;52.172;5.378;2023-10-19T13:39:02;13.37;;;4.33;;
7957;SDS011;4024;52.172;5.378;2023-10-19T13:41:28;7.17;;;4.10;;
7957;SDS011;4024;52.172;5.378;2023-10-19T13:43:54;9.10;;;4.20;;
7957;SDS011;4024;52.172;5.378;2023-10-19T13:46:20;10.53;;;4.10;;
7957;SDS011;4024;52.172;5.378;2023-10-19T13:48:49;10.00;;;3.90;;
7957;SDS011;4024;52.172;5.378;2023-10-19T13:51:17;9.83;;;4.30;;
7957;SDS011;4024;52.172;5.378;2023-10-19T13:53:44;8.10;;;4.20;;
7957;SDS011;4024;52.172;5.378;2023-10-19T13:56:10;12.50;;;4.47;;
7957;SDS011;4024;52.172;5.378;2023-10-19T13:58:36;12.80;;;4.40;;
7957;SDS011;4024;52.172;5.378;2023-10-19T14:01:02;11.67;;;4.20;;
7957;SDS011;4024;52.172;5.378;2023-10-19T14:03:33;8.87;;;5.17;;
7957;SDS011;4024;52.172;5.378;2023-10-19T14:06:00;11.67;;;4.50;;
7957;SDS011;4024;52.172;5.378;2023-10-19T14:08:25;9.43;;;4.20;;
7957;SDS011;4024;52.172;5.378;2023-10-19T14:10:51;10.17;;;4.07;;
7957;SDS011;4024;52.172;5.378;2023-10-19T14:13:16;8.13;;;4.13;;
7957;SDS011;4024;52.172;5.378;2023-10-19T14:15:42;10.50;;;4.83;;
7957;SDS011;4024;52.172;5.378;2023-10-19T14:18:08;14.03;;;4.53;;
7957;SDS011;4024;52.172;5.378;2023-10-19T14:20:35;12.90;;;4.10;;
7957;SDS011;4024;52.172;5.378;2023-10-19T14:23:04;11.63;;;4.53;;
7957;SDS011;4024;52.172;5.378;2023-10-19T14:25:30;8.37;;;4.03;;
7957;SDS011;4024;52.172;5.378;2023-10-19T14:27:56;10.50;;;4.33;;
7957;SDS011;4024;52.172;5.378;2023-10-19T14:30:28;11.80;;;4.50;;
7957;SDS011;4024;52.172;5.378;2023-10-19T14:32:53;13.20;;;4.67;;
7957;SDS011;4024;52.172;5.378;2023-10-19T14:35:20;11.30;;;4.40;;
7957;SDS011;4024;52.172;5.378;2023-10-19T14:37:48;12.17;;;4.47;;
7957;SDS011;4024;52.172;5.378;2023-10-19T14:40:17;10.90;;;4.17;;
7957;SDS011;4024;52.172;5.378;2023-10-19T14:42:45;10.97;;;3.83;;
7957;SDS011;4024;52.172;5.378;2023-10-19T14:45:11;10.60;;;4.03;;
7957;SDS011;4024;52.172;5.378;2023-10-19T14:47:39;11.63;;;4.50;;
7957;SDS011;4024;52.172;5.378;2023-10-19T14:50:15;8.90;;;4.67;;
7957;SDS011;4024;52.172;5.378;2023-10-19T14:52:44;13.27;;;4.57;;
7957;SDS011;4024;52.172;5.378;2023-10-19T14:55:12;8.37;;;4.00;;
7957;SDS011;4024;52.172;5.378;2023-10-19T14:57:40;14.20;;;5.23;;
7957;SDS011;4024;52.172;5.378;2023-10-19T15:00:08;14.37;;;4.73;;
7957;SDS011;4024;52.172;5.378;2023-10-19T15:02:50;14.63;;;5.13;;
7957;SDS011;4024;52.172;5.378;2023-10-19T15:05:20;13.00;;;6.07;;
7957;SDS011;4024;52.172;5.378;2023-10-19T15:07:48;17.20;;;5.57;;
7957;SDS011;4024;52.172;5.378;2023-10-19T15:10:18;9.17;;;4.63;;
7957;SDS011;4024;52.172;5.378;2023-10-19T15:12:45;11.50;;;4.50;;
7957;SDS011;4024;52.172;5.378;2023-10-19T15:15:11;14.57;;;5.27;;
7957;SDS011;4024;52.172;5.378;2023-10-19T15:17:41;11.13;;;4.63;;
7957;SDS011;4024;52.172;5.378;2023-10-19T15:20:12;12.00;;;4.63;;
7957;SDS011;4024;52.172;5.378;2023-10-19T15:22:44;12.43;;;4.67;;
7957;SDS011;4024;52.172;5.378;2023-10-19T15:25:12;13.23;;;4.83;;
7957;SDS011;4024;52.172;5.378;2023-10-19T15:27:39;11.53;;;5.00;;
7957;SDS011;4024;52.172;5.378;2023-10-19T15:30:07;10.90;;;4.93;;
7957;SDS011;4024;52.172;5.378;2023-10-19T15:32:37;11.93;;;5.07;;